Friday, June 22, 2018, 3:12 AM EDT
Back to Local

KMVY, Vineyard Haven Marthas Vin

Location: Vineyard Haven, MA, United States Lat: 41.4
Local Time: 3:12 AM EDT ( 7:12 GMT) Lon: -70.617
Time Zone: US/Eastern Elev: 68 ft

Show me the last for .
Show Decoded

2018-06-22 02:53 METAR KMVY 220653Z AUTO 00000KT 1/2SM R24/2200V6000FT FG BKN003 OVC011 16/16
                 A2990 RMK AO2 SLP125 T01560156 =
2018-06-22 02:44 METAR KMVY 220644Z AUTO 00000KT 1 1/2SM R24/2600VP6000FT BR SCT002 OVC011 16/16
                 A2990 RMK AO2 T01610161 =
2018-06-22 02:23 METAR KMVY 220623Z AUTO 00000KT 3SM BR SCT002 OVC011 17/17 A2990 RMK AO2
                 T01720167 =
2018-06-22 02:14 METAR KMVY 220614Z AUTO 00000KT 1SM R24/5500VP6000FT BR BKN002 OVC009 17/17
                 A2991 RMK AO2 T01670167 =
2018-06-22 01:53 METAR KMVY 220553Z AUTO 00000KT 3/4SM R24/4000V4500FT BR OVC002 17/17 A2990 RMK
                 AO2 SLP125 T01670167 10178 20156 51009 =
2018-06-22 01:10 METAR KMVY 220510Z AUTO 00000KT 1/2SM R24/3000V3500FT FG VV003 16/16 A2990 RMK
                 AO2 T01610161 =
2018-06-22 01:02 METAR KMVY 220502Z AUTO 34003KT 1/4SM R24/2200V3000FT FG VV003 16/16 A2990 RMK
                 AO2 T01610161 =
2018-06-22 00:53 METAR KMVY 220453Z AUTO 00000KT 1/4SM R24/2000V2200FT FG VV002 16/16 A2990 RMK
                 AO2 SLP122 T01610161 402330156 =
2018-06-22 00:43 METAR KMVY 220443Z AUTO 00000KT 1/4SM R24/2200V2400FT FG VV003 16/16 A2989 RMK
                 AO2 T01610161 =
2018-06-21 23:53 METAR KMVY 220353Z AUTO 35003KT 1/4SM R24/1200V1400FT FG VV002 16/16 A2989 RMK
                 AO2 SLP120 T01610161 =
2018-06-21 22:53 METAR KMVY 220253Z AUTO 00000KT 1/4SM R24/1400V1800FT FG VV002 16/16 A2988 RMK
                 AO2 SLP117 T01610161 53017 =
2018-06-21 22:45 METAR KMVY 220245Z AUTO 13003KT 1/4SM R24/1600V2000FT FG VV002 16/16 A2987 RMK
                 AO2 T01610161 =
2018-06-21 21:53 METAR KMVY 220153Z 15004KT 1/2SM R24/2800VP6000FT FG VV002 16/16 A2986 RMK AO2
                 SLP110 T01610161 =
2018-06-21 21:22 METAR KMVY 220122Z 15006KT 1/2SM R24/2400VP6000FT FG OVC003 16/16 A2985 RMK AO2
                 T01610161 =
2018-06-21 21:14 METAR KMVY 220114Z 15008KT 1 1/2SM R24/3500VP6000FT BR BKN003 17/17 A2985 RMK
                 AO2 T01670167 =
2018-06-21 21:11 METAR KMVY 220111Z 15006KT 5SM BR BKN003 17/17 A2985 RMK AO2 T01670167 =
2018-06-21 21:02 METAR KMVY 220102Z 12005KT 10SM SCT003 17/17 A2985 RMK AO2 T01720167 =
2018-06-21 20:53 METAR KMVY 220053Z 00000KT 10SM CLR 17/17 A2984 RMK AO2 SLP103 T01720167 =
2018-06-21 19:53 METAR KMVY 212353Z 13005KT 10SM SCT006 18/17 A2983 RMK AO2 SLP100 T01780167
                 10233 20178 53018 =
2018-06-21 18:53 METAR KMVY 212253Z 14006KT 10SM FEW007 19/17 A2981 RMK AO2 SLP093 T01890172 =
2018-06-21 18:11 METAR KMVY 212211Z 14006KT 10SM FEW008 19/17 A2979 RMK AO2 T01940172 =
2018-06-21 17:53 METAR KMVY 212153Z 14007KT 10SM CLR 20/18 A2978 RMK AO2 SLP084 T02000178 =
2018-06-21 16:53 METAR KMVY 212053Z 13009KT 10SM CLR 22/18 A2977 RMK AO2 SLP081 T02170183 53003 =
2018-06-21 16:14 METAR KMVY 212014Z 15010KT 10SM SCT009 21/18 A2977 RMK AO2 T02110183 =
2018-06-21 15:53 METAR KMVY 211953Z 17009KT 10SM CLR 22/18 A2976 RMK AO2 SLP077 T02170183 =
2018-06-21 14:53 METAR KMVY 211853Z 16008KT 10SM CLR 22/18 A2976 RMK AO2 SLP077 T02170183 =
2018-06-21 14:32 METAR KMVY 211832Z 17007KT 10SM SCT028 22/19 A2976 RMK AO2 T02220189 =
2018-06-21 14:23 METAR KMVY 211823Z 16007KT 10SM BKN026 22/19 A2976 RMK AO2 T02220189 =
2018-06-21 13:53 METAR KMVY 211753Z 16008KT 10SM SCT024 23/19 A2977 RMK AO2 SLP079 60000
                 T02280189 10233 20172 58008 =
2018-06-21 13:10 METAR KMVY 211710Z 16005KT 10SM BKN018 BKN025 22/18 A2978 RMK AO2 T02220183 =
2018-06-21 12:53 METAR KMVY 211653Z 21007KT 10SM FEW016 23/19 A2978 RMK AO2 SLP083 T02280189 =
2018-06-21 11:53 METAR KMVY 211553Z 20005KT 10SM SCT095 21/18 A2979 RMK AO2 SLP087 T02060183 =
2018-06-21 10:53 METAR KMVY 211453Z 00000KT 10SM FEW008 OVC085 19/18 A2979 RMK AO2 RAB09E23
                 SLP088 P0000 60000 T01890178 53001 =
2018-06-21 10:51 METAR KMVY 211451Z 00000KT 10SM FEW008 OVC085 19/18 A2979 RMK AO2 RAB09E23 P0000
                 =
2018-06-21 09:53 METAR KMVY 211353Z 25017KT 10SM CLR 17/16 A2979 =
2018-06-21 08:53 METAR KMVY 211253Z 16005KT 10SM FEW075 BKN095 BKN120 18/17 A2979 RMK AO2
                 RAB1155E10B34E44 SLP087 P0000 T01780167 =
2018-06-21 07:53 METAR KMVY 211153Z 18005KT 10SM FEW070 OVC090 17/16 A2979 RMK AO2 RAE13 SLP087
                 P0000 60003 70003 T01720161 10189 20172 51010 =
2018-06-21 06:53 METAR KMVY 211053Z 22005KT 10SM -RA OVC090 18/17 A2978 RMK AO2 RAE29B49 SLP084
                 P0000 T01780167 =
2018-06-21 05:53 METAR KMVY 210953Z 27008KT 10SM -RA OVC090 19/18 A2977 RMK AO2 SLP080 P0001
                 T01890183 =
2018-06-21 04:53 METAR KMVY 210853Z AUTO 26004KT 10SM -RA BKN100 19/18 A2976 RMK AO2 RAB0755
                 SLP075 P0002 60002 T01890178 55007 =
2018-06-21 03:53 METAR KMVY 210753Z AUTO 23006KT 10SM FEW100 18/17 A2975 RMK AO2 RAB0659E27
                 SLP074 P0000 T01830172 =

Support USWX by starting your Amazon purchase here.